Time;durP1;ratioP1;P1;durP2;ratioP2;P2;SDS_P1;SDS_P2;PMS_P1;PMS_P2;Temp;Humidity;BMP_temperature;BMP_pressure;BME280_temperature;BME280_humidity;BME280_pressure;Samples;Min_cycle;Max_cycle;Signal;HPM_P1;HPM_P2
2021/12/23 00:01:34;;;;;;;1.07;0.70;;;-1.50;99.90;;;;;;5062045;28;20248;-85
2021/12/23 00:04:00;;;;;;;0.83;0.67;;;-1.60;99.90;;;;;;5064942;28;20177;-84
2021/12/23 00:06:25;;;;;;;0.90;0.80;;;-1.60;99.90;;;;;;5060608;28;20177;-84
2021/12/23 00:08:51;;;;;;;1.27;1.13;;;-1.90;99.90;;;;;;5059916;28;20173;-84
2021/12/23 00:11:16;;;;;;;1.23;0.80;;;-2.00;99.90;;;;;;5060658;28;20209;-84
2021/12/23 00:13:50;;;;;;;1.70;0.93;;;-2.00;99.90;;;;;;5066564;28;20192;-84
2021/12/23 00:16:29;;;;;;;1.33;1.33;;;-2.00;99.90;;;;;;5061774;28;20264;-84
2021/12/23 00:19:01;;;;;;;0.60;0.60;;;-1.90;99.90;;;;;;5064938;28;20188;-84
2021/12/23 00:24:11;;;;;;;1.87;1.70;;;-2.00;99.90;;;;;;5066264;28;20196;-84
2021/12/23 00:26:36;;;;;;;1.60;1.10;;;-2.00;99.90;;;;;;5063713;28;20176;-84
2021/12/23 00:29:02;;;;;;;0.70;0.70;;;-2.00;99.90;;;;;;5057584;28;20185;-84
2021/12/23 00:31:28;;;;;;;1.93;1.83;;;-2.00;99.90;;;;;;5062243;28;20245;-85
2021/12/23 00:33:53;;;;;;;2.67;1.00;;;-2.00;99.90;;;;;;5062765;28;20181;-84
2021/12/23 00:36:19;;;;;;;0.57;0.57;;;-1.90;99.90;;;;;;5067240;28;20195;-84
2021/12/23 00:38:51;;;;;;;0.83;0.83;;;-2.00;99.90;;;;;;5081023;28;20188;-84
2021/12/23 00:41:19;;;;;;;0.80;0.80;;;-1.90;99.90;;;;;;5079354;28;20228;-84
2021/12/23 00:43:46;;;;;;;0.30;0.30;;;-1.70;99.90;;;;;;5083084;28;20200;-84
2021/12/23 00:46:11;;;;;;;0.40;0.27;;;-1.60;99.90;;;;;;5083778;28;20177;-84
2021/12/23 00:48:39;;;;;;;1.73;0.70;;;-1.40;99.90;;;;;;5083982;28;20817;-85
2021/12/23 00:51:06;;;;;;;1.23;0.70;;;-1.30;99.90;;;;;;5064546;28;20257;-83
2021/12/23 00:53:38;;;;;;;0.83;0.40;;;-1.20;99.90;;;;;;5065682;28;20200;-84
2021/12/23 00:56:04;;;;;;;0.70;0.23;;;-1.10;99.90;;;;;;5059402;28;20562;-85
2021/12/23 00:58:30;;;;;;;0.97;0.97;;;-1.00;99.90;;;;;;5066296;28;20201;-85
2021/12/23 01:01:00;;;;;;;0.43;0.43;;;-1.10;99.90;;;;;;5064299;28;20654;-85
2021/12/23 01:03:26;;;;;;;0.57;0.57;;;-1.20;99.90;;;;;;5065327;28;20176;-85
2021/12/23 01:05:53;;;;;;;0.73;0.73;;;-1.20;99.90;;;;;;5062471;28;20205;-84
2021/12/23 01:08:19;;;;;;;1.20;1.10;;;-1.20;99.90;;;;;;5064435;28;21245;-84
2021/12/23 01:10:52;;;;;;;0.57;0.57;;;-1.30;99.90;;;;;;5059627;28;20627;-85
2021/12/23 01:13:19;;;;;;;1.83;1.73;;;-1.20;99.90;;;;;;5063915;28;20604;-84
2021/12/23 01:16:13;;;;;;;1.00;0.90;;;-1.30;99.90;;;;;;5064823;28;20275;-84
2021/12/23 01:18:37;;;;;;;1.70;1.03;;;-1.30;99.90;;;;;;5065250;28;20236;-84
2021/12/23 01:21:14;;;;;;;0.93;0.93;;;-1.20;99.90;;;;;;5064685;28;20205;-84
2021/12/23 01:23:43;;;;;;;0.50;0.50;;;-1.00;99.90;;;;;;5063967;28;21188;-84
2021/12/23 01:26:08;;;;;;;1.47;1.37;;;-1.00;99.90;;;;;;5060557;28;20664;-84
2021/12/23 01:28:34;;;;;;;2.00;0.83;;;-0.80;99.90;;;;;;5064215;28;20178;-84
2021/12/23 01:30:59;;;;;;;1.97;1.33;;;-0.90;99.90;;;;;;5061683;28;20335;-84
2021/12/23 01:33:25;;;;;;;0.87;0.87;;;-0.70;99.90;;;;;;5060669;28;20273;-84
2021/12/23 01:35:51;;;;;;;0.97;0.90;;;-0.70;99.90;;;;;;5064448;28;20185;-84
2021/12/23 01:38:17;;;;;;;1.40;1.30;;;-0.70;99.90;;;;;;5063731;28;20228;-84
2021/12/23 01:40:46;;;;;;;3.93;0.83;;;-0.60;99.90;;;;;;5061109;28;20209;-83
2021/12/23 01:43:13;;;;;;;1.17;1.13;;;-1.20;99.90;;;;;;5063808;28;20194;-84
2021/12/23 01:45:48;;;;;;;3.53;2.07;;;-1.40;99.90;;;;;;5061184;28;20219;-84
2021/12/23 01:48:15;;;;;;;1.40;1.13;;;-1.40;99.90;;;;;;5066870;28;20742;-83
2021/12/23 01:50:42;;;;;;;1.10;0.77;;;-1.30;99.90;;;;;;5067859;28;20231;-84
2021/12/23 01:53:08;;;;;;;0.53;0.47;;;-1.50;99.90;;;;;;5067481;28;20277;-84
2021/12/23 01:55:38;;;;;;;1.30;1.03;;;-1.60;99.90;;;;;;5067762;28;20599;-84
2021/12/23 01:58:07;;;;;;;1.80;1.07;;;-1.70;99.90;;;;;;5067398;28;20197;-84
2021/12/23 02:00:35;;;;;;;2.83;1.73;;;-1.70;99.90;;;;;;5067027;28;20278;-83
2021/12/23 02:03:02;;;;;;;0.87;0.57;;;-1.60;99.90;;;;;;5067066;28;20587;-83
2021/12/23 02:05:28;;;;;;;0.83;0.77;;;-1.60;99.90;;;;;;5069577;28;20188;-84
2021/12/23 02:07:54;;;;;;;2.67;2.57;;;-1.70;99.90;;;;;;5065487;28;20195;-83
2021/12/23 02:10:20;;;;;;;1.03;0.93;;;-1.80;99.90;;;;;;5068221;28;20217;-84
2021/12/23 02:12:47;;;;;;;0.80;0.80;;;-1.90;99.90;;;;;;5066970;28;20204;-84
2021/12/23 02:15:15;;;;;;;0.60;0.60;;;-1.80;99.90;;;;;;5067242;28;20189;-84
2021/12/23 02:17:42;;;;;;;0.10;0.10;;;-1.90;99.90;;;;;;5069144;28;20254;-84
2021/12/23 02:20:10;;;;;;;1.23;1.13;;;-2.00;99.90;;;;;;5065132;28;20205;-84
2021/12/23 02:22:36;;;;;;;1.23;1.23;;;-2.00;99.90;;;;;;5067269;28;20247;-84
2021/12/23 02:25:04;;;;;;;0.57;0.50;;;-2.10;99.90;;;;;;5068960;28;20234;-84
2021/12/23 02:27:30;;;;;;;1.00;1.00;;;-2.20;99.90;;;;;;5066231;28;20203;-84
2021/12/23 02:29:55;;;;;;;1.00;0.87;;;-2.20;99.90;;;;;;5065315;28;21315;-85
2021/12/23 02:32:21;;;;;;;2.20;0.80;;;-2.20;99.90;;;;;;5066392;28;20189;-84
2021/12/23 02:34:46;;;;;;;0.67;0.67;;;-2.30;99.90;;;;;;5068869;28;20181;-84
2021/12/23 02:37:14;;;;;;;0.97;0.87;;;-2.20;99.90;;;;;;5066915;28;20185;-85
2021/12/23 02:39:40;;;;;;;1.70;1.23;;;-2.20;99.90;;;;;;5067097;28;20216;-84
2021/12/23 02:42:07;;;;;;;0.47;0.47;;;-2.20;99.90;;;;;;5064925;28;20219;-84
2021/12/23 02:44:32;;;;;;;1.00;0.87;;;-2.20;99.90;;;;;;5065439;28;20178;-84
2021/12/23 02:46:58;;;;;;;1.07;0.87;;;-2.20;99.90;;;;;;5060989;28;20181;-84
2021/12/23 02:49:24;;;;;;;1.63;1.23;;;-2.20;99.90;;;;;;5066723;28;20190;-84
2021/12/23 02:51:50;;;;;;;3.17;1.20;;;-2.20;99.90;;;;;;5066910;28;20217;-84
2021/12/23 02:54:15;;;;;;;1.13;1.07;;;-2.20;99.90;;;;;;5066684;28;20562;-84
2021/12/23 02:56:41;;;;;;;0.47;0.43;;;-2.10;99.90;;;;;;5062146;28;20567;-83
2021/12/23 02:59:06;;;;;;;0.90;0.90;;;-2.00;99.90;;;;;;5063880;28;20539;-84
2021/12/23 03:01:32;;;;;;;0.77;0.60;;;-2.00;99.90;;;;;;5067235;28;20295;-84
2021/12/23 03:03:59;;;;;;;0.87;0.80;;;-2.00;99.90;;;;;;5064472;28;20177;-83
2021/12/23 03:06:25;;;;;;;0.63;0.63;;;-1.90;99.90;;;;;;5068177;28;20238;-85
2021/12/23 03:08:53;;;;;;;0.40;0.37;;;-1.70;99.90;;;;;;5062602;28;20177;-84
2021/12/23 03:11:22;;;;;;;1.17;0.93;;;-1.60;99.90;;;;;;5066189;28;20478;-84
2021/12/23 03:13:49;;;;;;;1.13;1.03;;;-1.50;99.90;;;;;;5065273;28;20181;-84
2021/12/23 03:16:18;;;;;;;0.83;0.83;;;-1.60;99.90;;;;;;5066049;28;20182;-84
2021/12/23 03:18:45;;;;;;;2.67;1.43;;;-1.60;99.90;;;;;;5065664;28;20192;-84
2021/12/23 03:21:11;;;;;;;2.43;1.50;;;-1.40;99.90;;;;;;5068479;28;20292;-85
2021/12/23 03:23:36;;;;;;;2.43;1.60;;;-1.30;99.90;;;;;;5065840;28;20268;-84
2021/12/23 03:26:03;;;;;;;2.47;1.07;;;-1.20;99.90;;;;;;5066577;28;21017;-85
2021/12/23 03:28:28;;;;;;;1.13;0.37;;;-1.20;99.90;;;;;;5062848;28;20263;-85
2021/12/23 03:30:54;;;;;;;1.33;0.83;;;-1.00;99.90;;;;;;5062719;28;20673;-84
2021/12/23 03:33:20;;;;;;;1.53;1.10;;;-0.90;99.90;;;;;;5064603;28;20189;-84
2021/12/23 03:35:46;;;;;;;1.30;1.10;;;-0.70;99.90;;;;;;5066016;28;20562;-84
2021/12/23 03:38:12;;;;;;;0.30;0.30;;;-0.60;99.90;;;;;;5066002;28;20181;-84
2021/12/23 03:40:38;;;;;;;2.13;2.03;;;-1.20;99.90;;;;;;5067104;28;20268;-85
2021/12/23 03:43:04;;;;;;;1.63;1.53;;;-1.40;99.90;;;;;;5063813;28;20177;-85
2021/12/23 03:45:30;;;;;;;1.90;1.73;;;-1.40;99.90;;;;;;5066400;28;20185;-84
2021/12/23 03:47:56;;;;;;;0.87;0.87;;;-1.40;99.90;;;;;;5064599;28;20276;-85
2021/12/23 03:50:24;;;;;;;0.73;0.73;;;-1.40;99.90;;;;;;5063248;28;20197;-85
2021/12/23 03:52:50;;;;;;;1.37;1.23;;;-1.40;99.90;;;;;;5065259;28;20309;-86
2021/12/23 03:55:16;;;;;;;0.70;0.70;;;-1.30;99.90;;;;;;5066366;28;20196;-85
2021/12/23 03:57:42;;;;;;;5.07;2.43;;;-1.50;99.90;;;;;;5065170;28;20398;-85
2021/12/23 04:00:12;;;;;;;3.33;2.13;;;-1.50;99.90;;;;;;5061152;28;20304;-85
2021/12/23 04:02:38;;;;;;;2.17;0.83;;;-1.30;99.90;;;;;;5064404;28;20209;-85
2021/12/23 04:05:09;;;;;;;2.73;1.43;;;-1.60;99.90;;;;;;5066092;28;20200;-85
2021/12/23 04:07:35;;;;;;;0.67;0.67;;;-1.40;99.90;;;;;;5064460;28;20708;-85
2021/12/23 04:10:02;;;;;;;2.00;0.90;;;-1.40;99.90;;;;;;5061380;28;20192;-85
2021/12/23 04:12:28;;;;;;;1.03;1.03;;;-1.30;99.90;;;;;;5059670;28;20193;-85
2021/12/23 04:14:53;;;;;;;7.93;1.23;;;-1.30;99.90;;;;;;5064112;28;20192;-85
2021/12/23 04:17:19;;;;;;;1.33;1.23;;;-1.60;99.90;;;;;;5062748;28;20188;-85
2021/12/23 04:19:46;;;;;;;1.33;1.23;;;-1.30;99.90;;;;;;5060150;28;20642;-85
2021/12/23 04:22:12;;;;;;;1.03;1.03;;;-1.10;99.90;;;;;;5063380;28;20201;-85
2021/12/23 04:24:39;;;;;;;2.63;0.80;;;-1.00;99.90;;;;;;5064284;28;20178;-85
2021/12/23 04:27:05;;;;;;;2.67;2.47;;;-0.90;99.90;;;;;;5067134;28;20867;-85
2021/12/23 04:29:30;;;;;;;1.20;1.20;;;-0.90;99.90;;;;;;5066492;28;20551;-85
2021/12/23 04:31:56;;;;;;;7.00;1.20;;;-0.90;99.90;;;;;;5066098;28;20227;-85
2021/12/23 04:34:22;;;;;;;1.67;1.57;;;-0.90;99.90;;;;;;5065303;28;20281;-85
2021/12/23 04:36:47;;;;;;;2.10;1.60;;;-0.80;99.90;;;;;;5062837;28;20266;-85
2021/12/23 04:39:13;;;;;;;0.43;0.43;;;-0.70;99.90;;;;;;5064111;28;20181;-85
2021/12/23 04:41:38;;;;;;;1.03;1.00;;;-0.60;99.90;;;;;;5064508;28;20219;-85
2021/12/23 04:44:05;;;;;;;1.30;1.10;;;-0.50;99.90;;;;;;5066215;28;20179;-85
2021/12/23 04:46:30;;;;;;;0.53;0.53;;;-0.40;99.90;;;;;;5065033;28;20188;-85
2021/12/23 04:48:56;;;;;;;4.63;0.63;;;-0.60;99.90;;;;;;5061699;28;20579;-85
2021/12/23 04:51:22;;;;;;;4.90;1.50;;;-0.50;99.90;;;;;;5064816;28;20232;-85
2021/12/23 04:53:48;;;;;;;0.23;0.23;;;-0.70;99.90;;;;;;5065270;28;20179;-85
2021/12/23 04:56:15;;;;;;;2.10;1.77;;;-0.70;99.90;;;;;;5064534;28;20208;-84
2021/12/23 04:58:41;;;;;;;2.43;1.80;;;-0.60;99.90;;;;;;5064386;28;20200;-84
2021/12/23 05:01:16;;;;;;;0.87;0.87;;;-0.40;99.90;;;;;;5066238;28;20274;-85
2021/12/23 05:03:42;;;;;;;1.17;1.13;;;-0.40;99.90;;;;;;5064585;28;20204;-85
2021/12/23 05:06:07;;;;;;;1.70;1.60;;;-0.30;99.90;;;;;;5064915;28;20212;-85
2021/12/23 05:08:33;;;;;;;1.27;0.77;;;-0.40;99.90;;;;;;5066206;28;20177;-85
2021/12/23 05:10:58;;;;;;;2.40;2.27;;;-0.60;99.90;;;;;;5062217;28;20205;-85
2021/12/23 05:13:24;;;;;;;2.43;2.23;;;-0.50;99.90;;;;;;5063168;28;20255;-85
2021/12/23 05:15:49;;;;;;;2.30;2.20;;;-0.70;99.90;;;;;;5063819;28;20544;-85
2021/12/23 05:18:15;;;;;;;0.90;0.90;;;-0.80;99.90;;;;;;5061266;28;20200;-85
2021/12/23 05:20:41;;;;;;;1.90;1.47;;;-0.80;99.90;;;;;;5064438;28;20266;-85
2021/12/23 05:23:07;;;;;;;1.70;1.60;;;-0.80;99.90;;;;;;5061074;28;20182;-85
2021/12/23 05:25:32;;;;;;;1.60;0.73;;;-0.90;99.90;;;;;;5064001;28;20165;-86
2021/12/23 05:28:00;;;;;;;2.00;1.90;;;-0.70;99.90;;;;;;5060206;28;20177;-85
2021/12/23 05:30:27;;;;;;;4.87;2.80;;;-0.70;99.90;;;;;;5064406;28;20231;-85
2021/12/23 05:32:53;;;;;;;2.40;1.33;;;-0.50;99.90;;;;;;5066200;28;20193;-85
2021/12/23 05:35:20;;;;;;;1.90;1.33;;;-0.30;99.90;;;;;;5065128;28;20189;-85
2021/12/23 05:37:46;;;;;;;3.43;1.27;;;-0.20;99.90;;;;;;5064544;28;20191;-86
2021/12/23 05:40:14;;;;;;;2.00;1.90;;;-0.10;99.90;;;;;;5061203;28;20209;-85
2021/12/23 05:42:40;;;;;;;1.47;1.17;;;0.00;99.90;;;;;;5065942;28;20205;-85
2021/12/23 05:45:06;;;;;;;1.50;1.40;;;0.10;99.90;;;;;;5058569;28;20238;-84
2021/12/23 05:47:32;;;;;;;0.50;0.50;;;0.10;99.90;;;;;;5064111;28;20180;-85
2021/12/23 05:49:58;;;;;;;1.53;1.53;;;0.20;99.90;;;;;;5060823;28;20268;-84
2021/12/23 05:52:23;;;;;;;1.83;0.83;;;0.10;99.90;;;;;;5062674;28;20185;-84
2021/12/23 05:54:49;;;;;;;1.33;0.87;;;-0.30;99.90;;;;;;5065915;28;20189;-85
2021/12/23 05:57:14;;;;;;;1.17;0.97;;;-0.50;99.90;;;;;;5065850;28;20251;-84
2021/12/23 05:59:40;;;;;;;2.63;1.50;;;-0.30;99.90;;;;;;5065099;28;20209;-84
2021/12/23 06:02:06;;;;;;;3.40;2.30;;;-0.30;99.90;;;;;;5062939;28;20213;-84
2021/12/23 06:04:33;;;;;;;1.80;1.13;;;-0.10;99.90;;;;;;5062746;28;20177;-84
2021/12/23 06:06:59;;;;;;;1.37;1.30;;;-0.10;99.90;;;;;;5064489;28;20246;-84
2021/12/23 06:09:24;;;;;;;1.80;1.63;;;0.00;99.90;;;;;;5064529;28;20272;-85
2021/12/23 06:11:50;;;;;;;4.83;1.30;;;0.00;99.90;;;;;;5063124;28;20203;-84
2021/12/23 06:14:16;;;;;;;0.83;0.83;;;-0.60;99.90;;;;;;5064694;28;20190;-84
2021/12/23 06:16:43;;;;;;;2.33;1.50;;;-0.70;99.90;;;;;;5061858;28;20668;-84
2021/12/23 06:19:08;;;;;;;1.33;1.20;;;-0.50;99.90;;;;;;5063566;28;20272;-84
2021/12/23 06:21:34;;;;;;;1.93;1.43;;;-0.50;99.90;;;;;;5062379;28;20220;-85
2021/12/23 06:24:02;;;;;;;3.03;0.90;;;-0.40;99.90;;;;;;5061824;28;20177;-84
2021/12/23 06:26:28;;;;;;;1.73;1.07;;;-0.30;99.90;;;;;;5062137;28;20238;-85
2021/12/23 06:28:54;;;;;;;2.17;1.93;;;-0.20;99.90;;;;;;5056618;28;22514;-84
2021/12/23 06:31:19;;;;;;;0.90;0.90;;;-0.20;99.90;;;;;;5069423;28;20209;-84
2021/12/23 06:33:45;;;;;;;2.87;1.53;;;-0.40;99.90;;;;;;5080038;28;20189;-82
2021/12/23 06:36:13;;;;;;;4.20;1.60;;;-0.60;99.90;;;;;;5079082;28;20207;-83
2021/12/23 06:38:40;;;;;;;2.00;1.00;;;-0.40;99.90;;;;;;5080805;28;20188;-81
2021/12/23 06:41:05;;;;;;;0.97;0.80;;;-0.30;99.90;;;;;;5083169;28;20205;-82
2021/12/23 06:43:31;;;;;;;2.97;0.50;;;-0.10;99.90;;;;;;5074013;28;20181;-82
2021/12/23 06:45:56;;;;;;;1.87;1.20;;;0.00;99.90;;;;;;5070906;28;20263;-82
2021/12/23 06:48:22;;;;;;;0.83;0.83;;;0.10;99.90;;;;;;5073907;28;20388;-82
2021/12/23 06:50:53;;;;;;;0.73;0.60;;;0.10;99.90;;;;;;5073501;28;20211;-82
2021/12/23 06:53:19;;;;;;;1.33;0.70;;;0.20;99.90;;;;;;5080522;28;20188;-82
2021/12/23 06:55:45;;;;;;;1.80;1.23;;;0.30;99.90;;;;;;5074385;28;20253;-82
2021/12/23 06:58:10;;;;;;;0.77;0.77;;;0.30;99.90;;;;;;5080362;28;20200;-83
2021/12/23 07:00:36;;;;;;;1.03;0.93;;;0.20;99.90;;;;;;5077833;28;20212;-85
2021/12/23 07:03:01;;;;;;;1.13;1.03;;;0.20;99.90;;;;;;5076516;28;20204;-85
2021/12/23 07:05:27;;;;;;;1.63;1.53;;;0.20;99.90;;;;;;5076124;28;21633;-86
2021/12/23 07:08:08;;;;;;;0.60;0.60;;;0.20;99.90;;;;;;5058726;28;20474;-86
2021/12/23 07:10:34;;;;;;;2.67;2.27;;;0.30;99.90;;;;;;5064515;28;20228;-85
2021/12/23 07:13:00;;;;;;;1.17;0.73;;;0.20;99.90;;;;;;5062251;28;20270;-86
2021/12/23 07:15:27;;;;;;;1.23;1.20;;;0.30;99.90;;;;;;5066331;28;20185;-85
2021/12/23 07:17:54;;;;;;;2.13;1.93;;;0.10;99.90;;;;;;5064816;28;20190;-85
2021/12/23 07:20:20;;;;;;;1.47;1.27;;;0.20;99.90;;;;;;5063680;28;20213;-86
2021/12/23 07:22:47;;;;;;;2.10;1.00;;;0.10;99.90;;;;;;5063361;28;20293;-86
2021/12/23 07:25:13;;;;;;;1.13;1.07;;;0.20;99.90;;;;;;5061562;28;20182;-84
2021/12/23 07:27:41;;;;;;;3.23;1.30;;;0.30;99.90;;;;;;5061053;28;20184;-85
2021/12/23 07:30:09;;;;;;;1.93;1.30;;;0.10;99.90;;;;;;5058480;28;20181;-85
2021/12/23 07:32:34;;;;;;;1.23;1.23;;;0.20;99.90;;;;;;5060398;28;20185;-85
2021/12/23 07:35:02;;;;;;;2.00;1.20;;;0.20;99.90;;;;;;5064342;28;20189;-86
2021/12/23 07:37:27;;;;;;;3.07;1.63;;;0.10;99.90;;;;;;5065444;28;20189;-85
2021/12/23 07:39:55;;;;;;;1.60;1.50;;;0.20;99.90;;;;;;5058144;28;20196;-86
2021/12/23 07:42:20;;;;;;;1.07;1.03;;;0.30;99.90;;;;;;5057447;28;20214;-84
2021/12/23 07:44:47;;;;;;;5.10;2.20;;;0.30;99.90;;;;;;5049312;28;20248;-83
2021/12/23 07:47:14;;;;;;;1.93;1.80;;;0.30;99.90;;;;;;5050280;28;20184;-83
2021/12/23 07:49:41;;;;;;;1.50;1.07;;;0.40;99.90;;;;;;5051355;28;20665;-84
2021/12/23 07:52:07;;;;;;;4.47;2.73;;;0.40;99.90;;;;;;5056437;28;20205;-83
2021/12/23 07:54:34;;;;;;;0.83;0.83;;;0.50;99.90;;;;;;5063075;28;20195;-84
2021/12/23 07:57:00;;;;;;;1.97;1.80;;;0.60;99.90;;;;;;5065743;28;20198;-84
2021/12/23 07:59:28;;;;;;;2.50;1.03;;;0.50;99.90;;;;;;5067560;28;20750;-84
2021/12/23 08:01:54;;;;;;;1.67;1.57;;;0.50;99.90;;;;;;5064489;28;20216;-83
2021/12/23 08:04:19;;;;;;;2.63;0.90;;;0.60;99.90;;;;;;5067543;28;20195;-83
2021/12/23 08:06:51;;;;;;;0.83;0.57;;;0.60;99.90;;;;;;5065611;28;20206;-83
2021/12/23 08:09:16;;;;;;;2.63;1.97;;;0.70;99.90;;;;;;5065872;28;20206;-82
2021/12/23 08:11:42;;;;;;;3.20;2.23;;;0.60;99.90;;;;;;5065036;28;20253;-82
2021/12/23 08:14:07;;;;;;;1.00;1.00;;;0.60;99.90;;;;;;5061566;28;20190;-82
2021/12/23 08:16:33;;;;;;;1.43;1.27;;;0.60;99.90;;;;;;5064402;28;20176;-82
2021/12/23 08:18:59;;;;;;;2.57;1.57;;;0.70;99.90;;;;;;5063381;28;20173;-82
2021/12/23 08:21:26;;;;;;;2.83;1.33;;;0.50;99.90;;;;;;5064956;28;20721;-83
2021/12/23 08:23:52;;;;;;;3.33;0.60;;;-0.20;99.90;;;;;;5062785;28;20679;-85
2021/12/23 08:26:21;;;;;;;2.10;1.70;;;-0.10;99.90;;;;;;5066285;28;20194;-84
2021/12/23 08:28:47;;;;;;;1.30;0.93;;;-0.10;99.90;;;;;;5062158;28;20228;-84
2021/12/23 08:31:13;;;;;;;3.50;0.80;;;0.10;99.90;;;;;;5065940;28;20209;-85
2021/12/23 08:33:39;;;;;;;2.03;1.40;;;0.20;99.90;;;;;;5063352;28;20189;-84
2021/12/23 08:36:04;;;;;;;3.57;1.07;;;0.40;99.90;;;;;;5063478;28;20209;-85
2021/12/23 08:38:30;;;;;;;2.80;1.03;;;0.40;99.90;;;;;;5066495;28;20251;-85
2021/12/23 08:40:56;;;;;;;3.00;1.17;;;0.50;99.90;;;;;;5065293;28;20223;-85
2021/12/23 08:43:22;;;;;;;2.83;1.13;;;0.60;99.90;;;;;;5060380;28;20233;-85
2021/12/23 08:45:48;;;;;;;3.43;1.57;;;0.70;99.90;;;;;;5065898;28;20665;-85
2021/12/23 08:48:13;;;;;;;2.37;2.27;;;0.70;99.90;;;;;;5062685;28;20227;-83
2021/12/23 08:50:39;;;;;;;2.00;1.63;;;0.70;99.90;;;;;;5062462;28;20212;-83
2021/12/23 08:53:05;;;;;;;4.53;1.30;;;0.70;99.90;;;;;;5064965;28;20189;-82
2021/12/23 08:55:31;;;;;;;5.43;2.93;;;0.70;99.90;;;;;;5056716;28;20181;-83
2021/12/23 08:57:58;;;;;;;1.77;1.43;;;0.70;99.90;;;;;;5059484;28;21226;-81
2021/12/23 09:00:26;;;;;;;0.70;0.70;;;0.60;99.90;;;;;;5070555;28;20268;-82
2021/12/23 09:02:52;;;;;;;2.10;1.90;;;0.70;99.90;;;;;;5086666;28;20305;-81
2021/12/23 09:05:19;;;;;;;2.20;1.30;;;0.60;99.90;;;;;;5065122;28;20508;-82
2021/12/23 09:07:46;;;;;;;0.87;0.87;;;0.60;99.90;;;;;;5067949;28;20975;-82
2021/12/23 09:10:11;;;;;;;2.63;2.30;;;0.60;99.90;;;;;;5074839;28;20216;-82
2021/12/23 09:12:37;;;;;;;3.37;1.07;;;0.70;99.90;;;;;;5070821;28;20186;-82
2021/12/23 09:15:04;;;;;;;1.67;1.57;;;0.60;99.90;;;;;;5066791;28;20190;-82
2021/12/23 09:17:30;;;;;;;0.77;0.77;;;0.70;99.90;;;;;;5067992;28;20195;-81
2021/12/23 09:19:56;;;;;;;3.23;1.27;;;0.70;99.90;;;;;;5064235;28;20230;-84
2021/12/23 09:22:22;;;;;;;1.27;1.27;;;0.80;99.90;;;;;;5065055;28;20683;-84
2021/12/23 09:24:48;;;;;;;5.63;1.40;;;0.80;99.90;;;;;;5062805;28;20650;-85
2021/12/23 09:27:36;;;;;;;4.43;1.40;;;0.90;99.90;;;;;;5057994;28;20190;-84
2021/12/23 09:32:55;;;;;;;2.47;1.03;;;0.90;99.90;;;;;;5069492;28;20203;-81
2021/12/23 09:35:24;;;;;;;1.60;1.03;;;1.00;99.90;;;;;;5061378;28;20196;-82
2021/12/23 09:37:50;;;;;;;2.27;1.30;;;1.00;99.90;;;;;;5063759;28;20194;-81
2021/12/23 09:40:17;;;;;;;0.83;0.83;;;1.00;99.90;;;;;;5064848;28;20204;-81
2021/12/23 09:42:45;;;;;;;1.27;1.17;;;1.00;99.90;;;;;;5066740;28;20197;-81
2021/12/23 09:45:13;;;;;;;1.43;1.10;;;0.90;99.90;;;;;;5064930;28;20592;-82
2021/12/23 09:47:41;;;;;;;2.40;1.83;;;1.00;99.90;;;;;;5064242;28;20185;-82
2021/12/23 09:50:11;;;;;;;0.73;0.73;;;0.90;99.90;;;;;;5058208;28;20551;-81
2021/12/23 09:52:44;;;;;;;1.57;1.33;;;1.10;99.90;;;;;;5065950;28;20253;-81
2021/12/23 09:55:13;;;;;;;1.00;1.00;;;1.10;99.90;;;;;;5066641;28;20673;-81
2021/12/23 09:57:39;;;;;;;1.73;1.63;;;1.20;99.90;;;;;;5065754;28;20548;-81
2021/12/23 10:00:10;;;;;;;0.57;0.57;;;1.20;99.90;;;;;;5065073;28;20189;-81
2021/12/23 10:02:42;;;;;;;0.80;0.80;;;1.20;99.90;;;;;;5065748;28;20215;-81
2021/12/23 10:05:11;;;;;;;2.53;1.17;;;1.30;99.90;;;;;;5065833;28;20185;-81
2021/12/23 10:07:37;;;;;;;4.97;1.47;;;1.20;99.90;;;;;;5069108;28;20185;-81
2021/12/23 10:10:14;;;;;;;1.53;1.43;;;1.30;99.90;;;;;;5070172;28;20183;-81
2021/12/23 10:30:12;;;;;;;1.83;0.80;;;1.70;99.90;;;;;;5071483;28;20190;-82
2021/12/23 10:32:18;;;;;;;1.93;1.83;;;1.60;99.90;;;;;;5071509;28;20585;-82
2021/12/23 10:37:21;;;;;;;2.33;1.53;;;1.60;99.90;;;;;;5070479;28;20193;-81
2021/12/23 10:39:53;;;;;;;3.10;2.20;;;1.70;99.90;;;;;;5074635;28;20196;-81
2021/12/23 10:42:20;;;;;;;0.57;0.57;;;1.70;99.90;;;;;;5068539;28;20216;-81
2021/12/23 10:45:06;;;;;;;1.70;1.50;;;1.80;99.90;;;;;;5070028;28;20196;-82
2021/12/23 10:47:49;;;;;;;1.43;1.00;;;1.80;99.90;;;;;;5072001;28;20271;-82
2021/12/23 10:50:38;;;;;;;1.27;1.20;;;1.90;99.90;;;;;;5082566;28;20208;-82
2021/12/23 10:53:10;;;;;;;2.33;1.03;;;1.80;99.90;;;;;;5075450;28;20194;-82
2021/12/23 10:58:22;;;;;;;5.90;1.70;;;1.90;99.90;;;;;;5075289;28;20225;-82
2021/12/23 11:00:52;;;;;;;2.20;1.43;;;1.90;99.90;;;;;;5071137;28;20212;-82
2021/12/23 11:03:34;;;;;;;0.80;0.80;;;1.90;99.90;;;;;;5070309;28;20615;-82
2021/12/23 11:06:11;;;;;;;0.90;0.90;;;1.70;99.90;;;;;;5072359;28;20181;-82
2021/12/23 11:38:59;;;;;;;1.50;1.40;;;2.10;99.90;;;;;;5073169;28;20201;-82
2021/12/23 11:43:57;;;;;;;4.10;0.73;;;2.10;99.90;;;;;;5072254;28;20304;-80
2021/12/23 11:46:35;;;;;;;3.07;1.43;;;2.20;99.90;;;;;;5069819;28;20216;-82
2021/12/23 11:49:06;;;;;;;1.33;1.23;;;2.10;99.90;;;;;;5069714;28;20282;-82
2021/12/23 11:51:43;;;;;;;1.57;1.47;;;2.00;99.90;;;;;;5071215;28;20206;-82
2021/12/23 11:54:11;;;;;;;1.53;1.43;;;2.00;99.90;;;;;;5067078;28;20178;-82
2021/12/23 11:56:43;;;;;;;1.43;1.03;;;2.10;99.90;;;;;;5068356;28;20181;-82
2021/12/23 11:59:13;;;;;;;1.63;1.37;;;2.10;99.90;;;;;;5069513;28;20208;-81
2021/12/23 12:01:48;;;;;;;0.63;0.53;;;2.20;99.90;;;;;;5071022;28;20224;-82
2021/12/23 12:04:37;;;;;;;1.10;1.10;;;2.30;99.90;;;;;;5072204;28;20192;-82
2021/12/23 12:07:18;;;;;;;3.17;1.93;;;2.40;99.90;;;;;;5069961;28;20267;-82
2021/12/23 12:10:07;;;;;;;0.63;0.63;;;2.40;99.90;;;;;;5070595;28;20222;-82
2021/12/23 12:12:34;;;;;;;1.50;1.43;;;2.20;99.90;;;;;;5071784;28;20180;-82
2021/12/23 12:15:00;;;;;;;1.13;1.13;;;1.80;99.90;;;;;;5067195;28;20211;-82
2021/12/23 12:17:26;;;;;;;1.37;1.03;;;2.00;99.90;;;;;;5070571;28;20248;-82
2021/12/23 12:20:21;;;;;;;0.77;0.40;;;2.10;99.90;;;;;;5071587;28;21235;-82
2021/12/23 12:23:14;;;;;;;1.03;0.93;;;2.30;99.90;;;;;;5067408;28;20717;-82
2021/12/23 12:25:44;;;;;;;1.53;1.43;;;2.40;99.90;;;;;;5069580;28;20182;-82
2021/12/23 12:28:14;;;;;;;1.23;1.13;;;2.50;99.90;;;;;;5068581;28;20687;-82
2021/12/23 12:31:06;;;;;;;1.60;1.33;;;2.60;99.90;;;;;;5069308;28;20214;-82
2021/12/23 12:33:34;;;;;;;2.97;2.67;;;2.70;99.90;;;;;;5064875;28;20272;-82
2021/12/23 12:36:03;;;;;;;2.40;2.23;;;2.70;99.90;;;;;;5069529;28;20188;-81
2021/12/23 12:38:37;;;;;;;1.27;1.20;;;2.60;99.90;;;;;;5067153;28;20575;-82
2021/12/23 12:41:07;;;;;;;1.47;0.87;;;2.50;99.90;;;;;;5068935;28;20672;-82
2021/12/23 12:43:47;;;;;;;2.13;1.93;;;1.90;99.90;;;;;;5065989;28;20570;-82
2021/12/23 12:46:43;;;;;;;1.23;1.13;;;1.50;99.90;;;;;;5069162;28;20237;-83
2021/12/23 12:49:13;;;;;;;2.60;2.40;;;1.50;99.90;;;;;;5079714;28;20278;-82
2021/12/23 12:51:43;;;;;;;0.80;0.80;;;1.50;99.90;;;;;;5066543;28;20205;-82
2021/12/23 12:54:14;;;;;;;1.10;1.03;;;1.50;99.90;;;;;;5065641;28;20201;-82
2021/12/23 12:56:46;;;;;;;0.30;0.30;;;1.90;99.90;;;;;;5067878;28;20715;-82
2021/12/23 12:59:13;;;;;;;2.13;2.00;;;2.10;99.90;;;;;;5065309;28;20208;-82
2021/12/23 13:01:45;;;;;;;3.37;0.90;;;2.40;99.90;;;;;;5067984;28;20216;-82
2021/12/23 13:04:41;;;;;;;3.43;1.77;;;2.60;99.90;;;;;;5068408;28;20240;-82
2021/12/23 13:07:35;;;;;;;3.43;3.23;;;2.30;99.90;;;;;;5068415;28;20162;-82
2021/12/23 13:10:18;;;;;;;1.17;1.13;;;2.00;99.90;;;;;;5066601;28;20180;-82
2021/12/23 13:12:58;;;;;;;1.47;1.37;;;2.30;99.90;;;;;;5068392;28;20192;-82
2021/12/23 13:15:31;;;;;;;1.03;0.97;;;2.60;99.90;;;;;;5065913;28;20195;-82
2021/12/23 13:18:03;;;;;;;1.63;1.50;;;2.50;99.90;;;;;;5068423;28;20192;-82
2021/12/23 13:20:44;;;;;;;2.13;1.87;;;2.60;99.90;;;;;;5063956;28;20203;-82
2021/12/23 13:23:29;;;;;;;1.97;1.50;;;2.50;99.90;;;;;;5066839;28;20260;-82
2021/12/23 13:25:57;;;;;;;2.33;1.43;;;2.60;99.90;;;;;;5069182;28;20178;-82
2021/12/23 13:28:27;;;;;;;1.10;1.10;;;2.70;99.90;;;;;;5066832;28;20190;-82
2021/12/23 13:30:53;;;;;;;5.50;2.27;;;2.50;99.90;;;;;;5069363;28;20215;-82
2021/12/23 13:33:19;;;;;;;1.40;1.30;;;2.60;99.90;;;;;;5067012;28;20229;-82
2021/12/23 13:35:44;;;;;;;1.10;1.00;;;2.70;99.90;;;;;;5069920;28;20179;-82
2021/12/23 13:38:26;;;;;;;1.63;1.33;;;2.70;99.90;;;;;;5066310;28;20189;-82
2021/12/23 13:40:52;;;;;;;0.63;0.63;;;2.70;99.90;;;;;;5066939;28;20220;-82
2021/12/23 13:43:31;;;;;;;1.60;1.10;;;2.60;99.90;;;;;;5072094;28;20216;-83
2021/12/23 13:46:04;;;;;;;3.67;1.03;;;1.90;99.90;;;;;;5072614;28;20183;-82
2021/12/23 13:48:30;;;;;;;4.17;1.53;;;1.60;99.90;;;;;;5071710;28;20182;-81
2021/12/23 13:50:57;;;;;;;1.53;1.43;;;1.70;99.90;;;;;;5072486;28;20207;-82
2021/12/23 13:53:23;;;;;;;1.53;1.43;;;1.40;99.90;;;;;;5066322;28;20279;-82
2021/12/23 13:55:50;;;;;;;2.20;1.77;;;1.60;99.90;;;;;;5069405;28;20277;-85
2021/12/23 13:58:24;;;;;;;2.20;1.47;;;1.90;99.90;;;;;;5066129;28;20206;-86
2021/12/23 14:00:50;;;;;;;2.17;1.43;;;2.10;99.90;;;;;;5064786;28;20222;-85